This is the latest recevied weather packets stored in our database for station/object CE4ERM-13. If no packets are shown the sender has not sent any weather packets the latest 10 day(s).
| Time | Temp. | Humidity | Pressure | Rain* | Wind** | Luminosity | Snow |
|---|---|---|---|---|---|---|---|
| 1777604923 | 20.56° C | 45% | 1020.3 hPa | - | - | - | - |
| 1777604821 | 18.89° C | 59% | 1019.5 hPa | - | - | - | - |
| 1777604324 | 20.56° C | 44% | 1018.5 hPa | - | - | - | - |
| 1777604219 | 18.33° C | 60% | 1019 hPa | - | - | - | - |
| 1777603723 | 21.11° C | 44% | 1019.9 hPa | - | - | - | - |
| 1777603635 | 20° C | 56% | 1018.6 hPa | - | - | - | - |
| 1777603033 | 20.56° C | 55% | 1019.1 hPa | - | - | - | - |
| 1777602418 | 20° C | 56% | 1018.9 hPa | - | - | - | - |
| 1777601921 | 21.11° C | 45% | 1020 hPa | - | - | - | - |
| 1777601819 | 20° C | 54% | 1018.6 hPa | - | - | - | - |
| 1777601322 | 21.11° C | 45% | 1019.3 hPa | - | - | - | - |
| 1777601218 | 20.56° C | 53% | 1018.3 hPa | - | - | - | - |
| 1777600617 | 20.56° C | 53% | 1015.6 hPa | - | - | - | - |
| 1777600121 | 21.67° C | 44% | 1018.4 hPa | - | - | - | - |
| 1777600018 | 20.56° C | 53% | 1015 hPa | - | - | - | - |
| 1777599521 | 21.67° C | 44% | 1018.2 hPa | - | - | - | - |
| 1777599418 | 20.56° C | 54% | 1017 hPa | - | - | - | - |
| 1777598817 | 20° C | 55% | 1018.6 hPa | - | - | - | - |
| 1777598217 | 20.56° C | 53% | 1017.2 hPa | - | - | - | - |
| 1777597721 | 22.22° C | 44% | 1016.5 hPa | - | - | - | - |
| 1777597617 | 20° C | 56% | 1018.2 hPa | - | - | - | - |
| 1777597122 | 22.22° C | 44% | 1017.3 hPa | - | - | - | - |
| 1777597017 | 20° C | 58% | 1017.5 hPa | - | - | - | - |
| 1777596520 | 22.22° C | 43% | 1020.2 hPa | - | - | - | - |
| 1777596416 | 20° C | 56% | 1016.1 hPa | - | - | - | - |
* Rain since midnight (hover to see other rain measurements)
** Current wind speed in m/s (hover to see current wind gust speed)